sensor_id;sensor_type;location;lat;lon;timestamp;P1;durP1;ratioP1;P2;durP2;ratioP2
54745;SDS011;40640;48.130;11.356;2023-02-11T00:02:01;41.05;;;17.23;;
54745;SDS011;40640;48.130;11.356;2023-02-11T00:06:07;46.72;;;17.70;;
54745;SDS011;40640;48.130;11.356;2023-02-11T00:10:10;41.90;;;17.45;;
54745;SDS011;40640;48.130;11.356;2023-02-11T00:14:13;39.33;;;16.27;;
54745;SDS011;40640;48.130;11.356;2023-02-11T00:18:16;46.90;;;17.73;;
54745;SDS011;40640;48.130;11.356;2023-02-11T00:22:20;40.88;;;16.65;;
54745;SDS011;40640;48.130;11.356;2023-02-11T00:26:24;40.75;;;16.88;;
54745;SDS011;40640;48.130;11.356;2023-02-11T00:30:28;41.53;;;17.57;;
54745;SDS011;40640;48.130;11.356;2023-02-11T00:34:31;39.60;;;16.65;;
54745;SDS011;40640;48.130;11.356;2023-02-11T00:38:37;43.15;;;16.98;;
54745;SDS011;40640;48.130;11.356;2023-02-11T00:42:40;41.15;;;17.40;;
54745;SDS011;40640;48.130;11.356;2023-02-11T00:46:43;41.33;;;17.23;;
54745;SDS011;40640;48.130;11.356;2023-02-11T00:50:46;51.00;;;17.80;;
54745;SDS011;40640;48.130;11.356;2023-02-11T00:54:50;45.38;;;16.27;;
54745;SDS011;40640;48.130;11.356;2023-02-11T00:58:53;41.22;;;16.35;;
54745;SDS011;40640;48.130;11.356;2023-02-11T01:02:56;37.97;;;17.27;;
54745;SDS011;40640;48.130;11.356;2023-02-11T01:06:59;45.35;;;18.08;;
54745;SDS011;40640;48.130;11.356;2023-02-11T01:11:04;40.75;;;18.25;;
54745;SDS011;40640;48.130;11.356;2023-02-11T01:15:10;40.53;;;17.55;;
54745;SDS011;40640;48.130;11.356;2023-02-11T01:19:15;45.97;;;18.95;;
54745;SDS011;40640;48.130;11.356;2023-02-11T01:23:19;38.03;;;16.77;;
54745;SDS011;40640;48.130;11.356;2023-02-11T01:27:24;38.35;;;17.40;;
54745;SDS011;40640;48.130;11.356;2023-02-11T01:31:27;47.13;;;17.80;;
54745;SDS011;40640;48.130;11.356;2023-02-11T01:35:34;39.10;;;16.90;;
54745;SDS011;40640;48.130;11.356;2023-02-11T01:39:36;41.40;;;16.83;;
54745;SDS011;40640;48.130;11.356;2023-02-11T01:43:42;39.67;;;16.92;;
54745;SDS011;40640;48.130;11.356;2023-02-11T01:47:46;42.60;;;17.35;;
54745;SDS011;40640;48.130;11.356;2023-02-11T01:51:53;45.28;;;18.27;;
54745;SDS011;40640;48.130;11.356;2023-02-11T01:55:58;40.85;;;15.85;;
54745;SDS011;40640;48.130;11.356;2023-02-11T02:00:20;37.88;;;15.68;;
54745;SDS011;40640;48.130;11.356;2023-02-11T02:04:26;38.53;;;16.80;;
54745;SDS011;40640;48.130;11.356;2023-02-11T02:08:34;38.00;;;15.95;;
54745;SDS011;40640;48.130;11.356;2023-02-11T02:12:41;36.15;;;15.77;;
54745;SDS011;40640;48.130;11.356;2023-02-11T02:16:46;42.58;;;16.13;;
54745;SDS011;40640;48.130;11.356;2023-02-11T02:21:09;39.05;;;15.68;;
54745;SDS011;40640;48.130;11.356;2023-02-11T02:25:27;36.95;;;15.48;;
54745;SDS011;40640;48.130;11.356;2023-02-11T02:34:35;38.50;;;16.17;;
54745;SDS011;40640;48.130;11.356;2023-02-11T02:38:46;39.13;;;15.50;;
54745;SDS011;40640;48.130;11.356;2023-02-11T02:42:54;42.97;;;14.52;;
54745;SDS011;40640;48.130;11.356;2023-02-11T02:46:57;34.92;;;14.60;;
54745;SDS011;40640;48.130;11.356;2023-02-11T02:51:04;37.85;;;15.20;;
54745;SDS011;40640;48.130;11.356;2023-02-11T02:55:19;36.33;;;15.68;;
54745;SDS011;40640;48.130;11.356;2023-02-11T02:59:38;37.60;;;15.13;;
54745;SDS011;40640;48.130;11.356;2023-02-11T03:03:51;34.92;;;14.32;;
54745;SDS011;40640;48.130;11.356;2023-02-11T03:08:06;30.17;;;14.07;;
54745;SDS011;40640;48.130;11.356;2023-02-11T03:12:11;34.45;;;14.73;;
54745;SDS011;40640;48.130;11.356;2023-02-11T03:16:17;43.22;;;13.27;;
54745;SDS011;40640;48.130;11.356;2023-02-11T03:20:23;30.70;;;12.88;;
54745;SDS011;40640;48.130;11.356;2023-02-11T03:24:30;30.90;;;13.63;;
54745;SDS011;40640;48.130;11.356;2023-02-11T03:28:37;30.27;;;13.38;;
54745;SDS011;40640;48.130;11.356;2023-02-11T03:32:45;34.00;;;13.40;;
54745;SDS011;40640;48.130;11.356;2023-02-11T03:36:52;30.92;;;11.68;;
54745;SDS011;40640;48.130;11.356;2023-02-11T03:41:03;28.05;;;11.75;;
54745;SDS011;40640;48.130;11.356;2023-02-11T03:45:09;28.73;;;12.50;;
54745;SDS011;40640;48.130;11.356;2023-02-11T03:49:16;25.05;;;11.05;;
54745;SDS011;40640;48.130;11.356;2023-02-11T03:53:22;23.58;;;9.68;;
54745;SDS011;40640;48.130;11.356;2023-02-11T03:57:27;25.90;;;10.30;;
54745;SDS011;40640;48.130;11.356;2023-02-11T04:01:30;22.17;;;10.25;;
54745;SDS011;40640;48.130;11.356;2023-02-11T04:05:33;25.45;;;11.27;;
54745;SDS011;40640;48.130;11.356;2023-02-11T04:09:36;22.33;;;10.27;;
54745;SDS011;40640;48.130;11.356;2023-02-11T04:13:40;23.00;;;9.75;;
54745;SDS011;40640;48.130;11.356;2023-02-11T04:17:43;20.38;;;10.23;;
54745;SDS011;40640;48.130;11.356;2023-02-11T04:21:46;21.38;;;9.35;;
54745;SDS011;40640;48.130;11.356;2023-02-11T04:25:49;20.15;;;10.05;;
54745;SDS011;40640;48.130;11.356;2023-02-11T04:29:53;30.25;;;10.95;;
54745;SDS011;40640;48.130;11.356;2023-02-11T04:33:56;26.35;;;10.13;;
54745;SDS011;40640;48.130;11.356;2023-02-11T04:37:59;21.85;;;10.98;;
54745;SDS011;40640;48.130;11.356;2023-02-11T04:42:02;25.10;;;10.35;;
54745;SDS011;40640;48.130;11.356;2023-02-11T04:46:06;23.20;;;9.32;;
54745;SDS011;40640;48.130;11.356;2023-02-11T04:50:09;22.65;;;10.13;;
54745;SDS011;40640;48.130;11.356;2023-02-11T04:54:12;24.70;;;10.90;;
54745;SDS011;40640;48.130;11.356;2023-02-11T04:58:15;31.17;;;11.23;;
54745;SDS011;40640;48.130;11.356;2023-02-11T05:02:19;24.58;;;12.02;;
54745;SDS011;40640;48.130;11.356;2023-02-11T05:06:22;24.50;;;10.77;;
54745;SDS011;40640;48.130;11.356;2023-02-11T05:10:25;24.00;;;10.27;;
54745;SDS011;40640;48.130;11.356;2023-02-11T05:14:28;23.92;;;10.40;;
54745;SDS011;40640;48.130;11.356;2023-02-11T05:18:33;25.38;;;11.70;;
54745;SDS011;40640;48.130;11.356;2023-02-11T05:22:35;25.00;;;10.13;;
54745;SDS011;40640;48.130;11.356;2023-02-11T05:26:38;23.48;;;10.13;;
54745;SDS011;40640;48.130;11.356;2023-02-11T05:30:41;23.15;;;10.40;;
54745;SDS011;40640;48.130;11.356;2023-02-11T05:34:45;22.98;;;10.23;;
54745;SDS011;40640;48.130;11.356;2023-02-11T05:38:48;20.77;;;10.50;;
54745;SDS011;40640;48.130;11.356;2023-02-11T05:42:51;20.15;;;9.82;;
54745;SDS011;40640;48.130;11.356;2023-02-11T05:46:54;22.83;;;9.98;;
54745;SDS011;40640;48.130;11.356;2023-02-11T05:50:58;18.45;;;9.23;;
54745;SDS011;40640;48.130;11.356;2023-02-11T05:55:01;27.55;;;9.15;;
54745;SDS011;40640;48.130;11.356;2023-02-11T05:59:04;23.63;;;10.07;;
54745;SDS011;40640;48.130;11.356;2023-02-11T06:03:07;18.35;;;8.45;;
54745;SDS011;40640;48.130;11.356;2023-02-11T06:07:11;18.27;;;8.65;;
54745;SDS011;40640;48.130;11.356;2023-02-11T06:11:14;19.60;;;8.07;;
54745;SDS011;40640;48.130;11.356;2023-02-11T06:15:17;17.92;;;8.52;;
54745;SDS011;40640;48.130;11.356;2023-02-11T06:19:20;16.20;;;7.72;;
54745;SDS011;40640;48.130;11.356;2023-02-11T06:23:24;12.88;;;6.63;;
54745;SDS011;40640;48.130;11.356;2023-02-11T06:27:30;14.50;;;7.22;;
54745;SDS011;40640;48.130;11.356;2023-02-11T06:31:33;14.98;;;7.15;;
54745;SDS011;40640;48.130;11.356;2023-02-11T06:35:38;16.85;;;7.28;;
54745;SDS011;40640;48.130;11.356;2023-02-11T06:39:43;19.63;;;7.43;;
54745;SDS011;40640;48.130;11.356;2023-02-11T06:43:47;15.02;;;7.30;;
54745;SDS011;40640;48.130;11.356;2023-02-11T06:47:50;17.52;;;7.93;;
54745;SDS011;40640;48.130;11.356;2023-02-11T06:51:53;16.17;;;7.22;;
54745;SDS011;40640;48.130;11.356;2023-02-11T06:56:00;16.35;;;7.60;;
54745;SDS011;40640;48.130;11.356;2023-02-11T07:00:04;18.52;;;8.18;;
54745;SDS011;40640;48.130;11.356;2023-02-11T07:04:08;16.67;;;8.48;;
54745;SDS011;40640;48.130;11.356;2023-02-11T07:08:11;18.92;;;8.65;;
54745;SDS011;40640;48.130;11.356;2023-02-11T07:12:15;21.10;;;9.02;;
54745;SDS011;40640;48.130;11.356;2023-02-11T07:16:18;17.70;;;8.70;;
54745;SDS011;40640;48.130;11.356;2023-02-11T07:20:22;20.05;;;9.85;;
54745;SDS011;40640;48.130;11.356;2023-02-11T07:24:24;19.55;;;8.73;;
54745;SDS011;40640;48.130;11.356;2023-02-11T07:28:29;19.90;;;8.90;;
54745;SDS011;40640;48.130;11.356;2023-02-11T07:32:32;20.58;;;9.02;;
54745;SDS011;40640;48.130;11.356;2023-02-11T07:36:35;16.17;;;8.80;;
54745;SDS011;40640;48.130;11.356;2023-02-11T07:40:39;19.83;;;8.43;;
54745;SDS011;40640;48.130;11.356;2023-02-11T07:44:44;15.77;;;8.43;;
54745;SDS011;40640;48.130;11.356;2023-02-11T07:48:50;18.08;;;8.30;;
54745;SDS011;40640;48.130;11.356;2023-02-11T07:52:53;22.33;;;8.32;;
54745;SDS011;40640;48.130;11.356;2023-02-11T07:56:57;22.08;;;7.63;;
54745;SDS011;40640;48.130;11.356;2023-02-11T08:01:02;14.55;;;7.80;;
54745;SDS011;40640;48.130;11.356;2023-02-11T08:05:06;19.55;;;8.57;;
54745;SDS011;40640;48.130;11.356;2023-02-11T08:09:10;20.38;;;8.80;;
54745;SDS011;40640;48.130;11.356;2023-02-11T08:17:19;14.05;;;7.18;;
54745;SDS011;40640;48.130;11.356;2023-02-11T08:21:22;18.65;;;8.15;;
54745;SDS011;40640;48.130;11.356;2023-02-11T08:25:26;14.60;;;7.68;;
54745;SDS011;40640;48.130;11.356;2023-02-11T08:29:28;18.02;;;8.90;;
54745;SDS011;40640;48.130;11.356;2023-02-11T08:33:33;18.67;;;7.70;;
54745;SDS011;40640;48.130;11.356;2023-02-11T08:37:35;24.80;;;11.57;;
54745;SDS011;40640;48.130;11.356;2023-02-11T08:41:38;17.45;;;9.00;;
54745;SDS011;40640;48.130;11.356;2023-02-11T08:45:41;22.60;;;8.93;;
54745;SDS011;40640;48.130;11.356;2023-02-11T08:49:45;22.95;;;9.65;;
54745;SDS011;40640;48.130;11.356;2023-02-11T08:53:48;21.95;;;9.65;;
54745;SDS011;40640;48.130;11.356;2023-02-11T08:57:52;20.27;;;9.82;;
54745;SDS011;40640;48.130;11.356;2023-02-11T09:01:54;16.60;;;9.45;;
54745;SDS011;40640;48.130;11.356;2023-02-11T09:06:02;20.23;;;10.18;;
54745;SDS011;40640;48.130;11.356;2023-02-11T09:10:06;22.25;;;11.23;;
54745;SDS011;40640;48.130;11.356;2023-02-11T09:14:12;22.02;;;9.98;;
54745;SDS011;40640;48.130;11.356;2023-02-11T09:18:18;20.58;;;10.25;;
54745;SDS011;40640;48.130;11.356;2023-02-11T09:22:22;18.77;;;9.80;;
54745;SDS011;40640;48.130;11.356;2023-02-11T09:26:26;20.40;;;9.93;;
54745;SDS011;40640;48.130;11.356;2023-02-11T09:30:30;21.88;;;9.98;;
54745;SDS011;40640;48.130;11.356;2023-02-11T09:34:33;20.67;;;10.23;;
54745;SDS011;40640;48.130;11.356;2023-02-11T09:38:38;22.63;;;10.45;;
54745;SDS011;40640;48.130;11.356;2023-02-11T09:42:42;21.58;;;10.68;;
54745;SDS011;40640;48.130;11.356;2023-02-11T09:46:50;20.05;;;11.00;;
54745;SDS011;40640;48.130;11.356;2023-02-11T09:50:56;22.45;;;10.32;;
54745;SDS011;40640;48.130;11.356;2023-02-11T09:55:03;23.38;;;11.80;;
54745;SDS011;40640;48.130;11.356;2023-02-11T10:03:25;19.83;;;10.55;;
54745;SDS011;40640;48.130;11.356;2023-02-11T10:07:56;26.10;;;10.73;;
54745;SDS011;40640;48.130;11.356;2023-02-11T10:12:17;17.58;;;10.77;;
54745;SDS011;40640;48.130;11.356;2023-02-11T10:16:40;21.20;;;11.27;;
54745;SDS011;40640;48.130;11.356;2023-02-11T10:20:57;20.67;;;10.77;;
54745;SDS011;40640;48.130;11.356;2023-02-11T10:25:16;25.80;;;10.52;;
54745;SDS011;40640;48.130;11.356;2023-02-11T10:29:29;23.65;;;9.75;;
54745;SDS011;40640;48.130;11.356;2023-02-11T10:33:38;20.63;;;10.60;;
54745;SDS011;40640;48.130;11.356;2023-02-11T10:37:45;21.17;;;10.75;;
54745;SDS011;40640;48.130;11.356;2023-02-11T10:41:49;17.83;;;10.07;;
54745;SDS011;40640;48.130;11.356;2023-02-11T10:45:57;21.13;;;9.85;;
54745;SDS011;40640;48.130;11.356;2023-02-11T10:50:03;22.65;;;10.88;;
54745;SDS011;40640;48.130;11.356;2023-02-11T10:54:21;22.98;;;11.30;;
54745;SDS011;40640;48.130;11.356;2023-02-11T10:58:25;26.45;;;11.20;;
54745;SDS011;40640;48.130;11.356;2023-02-11T11:02:31;17.50;;;10.10;;
54745;SDS011;40640;48.130;11.356;2023-02-11T11:06:38;23.75;;;11.05;;
54745;SDS011;40640;48.130;11.356;2023-02-11T11:10:42;25.42;;;10.95;;
54745;SDS011;40640;48.130;11.356;2023-02-11T11:14:48;23.60;;;9.93;;
54745;SDS011;40640;48.130;11.356;2023-02-11T11:23:22;21.42;;;9.25;;
54745;SDS011;40640;48.130;11.356;2023-02-11T11:27:26;22.00;;;10.30;;
54745;SDS011;40640;48.130;11.356;2023-02-11T11:31:31;17.63;;;10.63;;
54745;SDS011;40640;48.130;11.356;2023-02-11T11:35:37;19.33;;;9.40;;
54745;SDS011;40640;48.130;11.356;2023-02-11T11:39:40;23.35;;;9.60;;
54745;SDS011;40640;48.130;11.356;2023-02-11T11:43:52;16.67;;;9.23;;
54745;SDS011;40640;48.130;11.356;2023-02-11T11:47:57;19.58;;;8.82;;
54745;SDS011;40640;48.130;11.356;2023-02-11T11:52:09;20.88;;;9.43;;
54745;SDS011;40640;48.130;11.356;2023-02-11T11:56:18;18.67;;;8.93;;
54745;SDS011;40640;48.130;11.356;2023-02-11T12:00:25;18.10;;;10.40;;
54745;SDS011;40640;48.130;11.356;2023-02-11T12:04:36;22.77;;;11.32;;
54745;SDS011;40640;48.130;11.356;2023-02-11T12:08:53;17.52;;;9.23;;
54745;SDS011;40640;48.130;11.356;2023-02-11T12:13:07;15.38;;;8.93;;
54745;SDS011;40640;48.130;11.356;2023-02-11T12:17:27;14.38;;;8.25;;
54745;SDS011;40640;48.130;11.356;2023-02-11T12:21:43;17.27;;;9.20;;
54745;SDS011;40640;48.130;11.356;2023-02-11T12:25:59;15.88;;;8.15;;
54745;SDS011;40640;48.130;11.356;2023-02-11T12:30:12;18.10;;;9.15;;
54745;SDS011;40640;48.130;11.356;2023-02-11T12:34:36;18.93;;;9.03;;
54745;SDS011;40640;48.130;11.356;2023-02-11T12:38:53;18.98;;;9.10;;
54745;SDS011;40640;48.130;11.356;2023-02-11T12:43:07;18.27;;;8.82;;
54745;SDS011;40640;48.130;11.356;2023-02-11T12:47:23;17.00;;;9.68;;
54745;SDS011;40640;48.130;11.356;2023-02-11T12:51:36;13.48;;;7.47;;
54745;SDS011;40640;48.130;11.356;2023-02-11T12:55:50;20.15;;;8.80;;
54745;SDS011;40640;48.130;11.356;2023-02-11T13:00:01;15.27;;;8.10;;
54745;SDS011;40640;48.130;11.356;2023-02-11T13:04:10;13.63;;;7.65;;
54745;SDS011;40640;48.130;11.356;2023-02-11T13:08:18;14.68;;;8.32;;
54745;SDS011;40640;48.130;11.356;2023-02-11T13:12:27;14.63;;;8.05;;
54745;SDS011;40640;48.130;11.356;2023-02-11T13:16:51;12.50;;;7.75;;
54745;SDS011;40640;48.130;11.356;2023-02-11T13:20:57;14.98;;;7.30;;
54745;SDS011;40640;48.130;11.356;2023-02-11T13:25:13;15.45;;;7.50;;
54745;SDS011;40640;48.130;11.356;2023-02-11T13:33:33;9.95;;;7.13;;
54745;SDS011;40640;48.130;11.356;2023-02-11T13:37:37;12.00;;;7.65;;
54745;SDS011;40640;48.130;11.356;2023-02-11T13:41:41;14.18;;;7.95;;
54745;SDS011;40640;48.130;11.356;2023-02-11T13:45:45;14.98;;;7.68;;
54745;SDS011;40640;48.130;11.356;2023-02-11T13:49:51;12.07;;;7.50;;
54745;SDS011;40640;48.130;11.356;2023-02-11T13:53:55;11.63;;;7.80;;
54745;SDS011;40640;48.130;11.356;2023-02-11T13:58:15;13.70;;;8.27;;
54745;SDS011;40640;48.130;11.356;2023-02-11T14:02:21;11.80;;;7.43;;
54745;SDS011;40640;48.130;11.356;2023-02-11T14:11:43;19.35;;;8.88;;
54745;SDS011;40640;48.130;11.356;2023-02-11T14:15:48;12.95;;;7.93;;
54745;SDS011;40640;48.130;11.356;2023-02-11T14:24:44;15.32;;;9.27;;
54745;SDS011;40640;48.130;11.356;2023-02-11T14:28:52;17.70;;;8.85;;
54745;SDS011;40640;48.130;11.356;2023-02-11T14:37:30;18.77;;;9.82;;
54745;SDS011;40640;48.130;11.356;2023-02-11T14:41:39;24.30;;;9.77;;
54745;SDS011;40640;48.130;11.356;2023-02-11T14:45:47;20.65;;;10.10;;
54745;SDS011;40640;48.130;11.356;2023-02-11T14:49:52;18.98;;;11.00;;
54745;SDS011;40640;48.130;11.356;2023-02-11T14:53:57;20.85;;;11.38;;
54745;SDS011;40640;48.130;11.356;2023-02-11T14:58:04;23.55;;;11.70;;
54745;SDS011;40640;48.130;11.356;2023-02-11T15:02:21;20.48;;;11.50;;
54745;SDS011;40640;48.130;11.356;2023-02-11T15:06:27;23.90;;;11.48;;
54745;SDS011;40640;48.130;11.356;2023-02-11T15:10:33;20.65;;;11.52;;
54745;SDS011;40640;48.130;11.356;2023-02-11T15:14:39;25.48;;;11.82;;
54745;SDS011;40640;48.130;11.356;2023-02-11T15:18:48;23.67;;;12.68;;
54745;SDS011;40640;48.130;11.356;2023-02-11T15:22:54;22.00;;;12.23;;
54745;SDS011;40640;48.130;11.356;2023-02-11T15:26:59;21.67;;;12.57;;
54745;SDS011;40640;48.130;11.356;2023-02-11T15:31:03;23.33;;;12.50;;
54745;SDS011;40640;48.130;11.356;2023-02-11T15:35:16;24.35;;;12.57;;
54745;SDS011;40640;48.130;11.356;2023-02-11T15:39:28;25.77;;;13.68;;
54745;SDS011;40640;48.130;11.356;2023-02-11T15:43:39;28.00;;;14.95;;
54745;SDS011;40640;48.130;11.356;2023-02-11T15:47:45;27.23;;;14.50;;
54745;SDS011;40640;48.130;11.356;2023-02-11T15:51:52;27.23;;;13.55;;
54745;SDS011;40640;48.130;11.356;2023-02-11T15:55:58;27.13;;;13.70;;
54745;SDS011;40640;48.130;11.356;2023-02-11T16:00:06;26.77;;;14.38;;
54745;SDS011;40640;48.130;11.356;2023-02-11T16:04:16;27.25;;;14.60;;
54745;SDS011;40640;48.130;11.356;2023-02-11T16:08:24;25.47;;;14.10;;
54745;SDS011;40640;48.130;11.356;2023-02-11T16:12:30;30.08;;;15.50;;
54745;SDS011;40640;48.130;11.356;2023-02-11T16:16:32;30.00;;;15.23;;
54745;SDS011;40640;48.130;11.356;2023-02-11T16:20:36;33.30;;;14.93;;
54745;SDS011;40640;48.130;11.356;2023-02-11T16:24:40;30.02;;;16.83;;
54745;SDS011;40640;48.130;11.356;2023-02-11T16:28:43;31.83;;;16.50;;
54745;SDS011;40640;48.130;11.356;2023-02-11T16:32:46;38.05;;;16.67;;
54745;SDS011;40640;48.130;11.356;2023-02-11T16:36:49;39.50;;;18.92;;
54745;SDS011;40640;48.130;11.356;2023-02-11T16:42:08;40.80;;;19.23;;
54745;SDS011;40640;48.130;11.356;2023-02-11T16:46:12;38.22;;;19.30;;
54745;SDS011;40640;48.130;11.356;2023-02-11T16:58:26;39.25;;;16.55;;
54745;SDS011;40640;48.130;11.356;2023-02-11T17:02:30;35.80;;;17.50;;
54745;SDS011;40640;48.130;11.356;2023-02-11T17:06:35;32.45;;;15.52;;
54745;SDS011;40640;48.130;11.356;2023-02-11T17:10:38;54.70;;;20.92;;
54745;SDS011;40640;48.130;11.356;2023-02-11T17:14:43;41.42;;;18.05;;
54745;SDS011;40640;48.130;11.356;2023-02-11T17:18:46;37.75;;;18.42;;
54745;SDS011;40640;48.130;11.356;2023-02-11T17:22:49;60.38;;;24.42;;
54745;SDS011;40640;48.130;11.356;2023-02-11T17:26:52;43.80;;;20.80;;
54745;SDS011;40640;48.130;11.356;2023-02-11T17:30:57;45.60;;;22.92;;
54745;SDS011;40640;48.130;11.356;2023-02-11T17:35:00;48.78;;;20.98;;
54745;SDS011;40640;48.130;11.356;2023-02-11T17:39:03;43.22;;;19.70;;
54745;SDS011;40640;48.130;11.356;2023-02-11T17:43:08;40.42;;;18.00;;
54745;SDS011;40640;48.130;11.356;2023-02-11T17:47:12;36.10;;;19.08;;
54745;SDS011;40640;48.130;11.356;2023-02-11T17:51:19;41.95;;;19.73;;
54745;SDS011;40640;48.130;11.356;2023-02-11T17:55:23;42.90;;;20.85;;
54745;SDS011;40640;48.130;11.356;2023-02-11T17:59:26;45.85;;;20.27;;
54745;SDS011;40640;48.130;11.356;2023-02-11T18:03:36;39.63;;;19.58;;
54745;SDS011;40640;48.130;11.356;2023-02-11T18:07:39;41.83;;;18.35;;
54745;SDS011;40640;48.130;11.356;2023-02-11T18:11:42;42.08;;;19.77;;
54745;SDS011;40640;48.130;11.356;2023-02-11T18:15:45;46.00;;;19.20;;
54745;SDS011;40640;48.130;11.356;2023-02-11T18:19:49;43.78;;;19.83;;
54745;SDS011;40640;48.130;11.356;2023-02-11T18:23:52;49.00;;;20.52;;
54745;SDS011;40640;48.130;11.356;2023-02-11T18:27:57;46.88;;;22.05;;
54745;SDS011;40640;48.130;11.356;2023-02-11T18:32:00;44.13;;;21.92;;
54745;SDS011;40640;48.130;11.356;2023-02-11T18:36:05;51.28;;;22.98;;
54745;SDS011;40640;48.130;11.356;2023-02-11T18:40:09;53.40;;;23.20;;
54745;SDS011;40640;48.130;11.356;2023-02-11T18:44:13;53.35;;;24.85;;
54745;SDS011;40640;48.130;11.356;2023-02-11T18:48:21;52.92;;;23.05;;
54745;SDS011;40640;48.130;11.356;2023-02-11T18:52:25;47.25;;;21.80;;
54745;SDS011;40640;48.130;11.356;2023-02-11T18:56:28;44.78;;;21.02;;
54745;SDS011;40640;48.130;11.356;2023-02-11T19:00:31;40.92;;;17.92;;
54745;SDS011;40640;48.130;11.356;2023-02-11T19:04:34;34.63;;;17.40;;
54745;SDS011;40640;48.130;11.356;2023-02-11T19:08:39;33.05;;;17.17;;
54745;SDS011;40640;48.130;11.356;2023-02-11T19:12:41;39.58;;;19.05;;
54745;SDS011;40640;48.130;11.356;2023-02-11T19:16:44;46.33;;;18.83;;
54745;SDS011;40640;48.130;11.356;2023-02-11T19:20:47;43.70;;;20.83;;
54745;SDS011;40640;48.130;11.356;2023-02-11T19:24:51;44.13;;;19.40;;
54745;SDS011;40640;48.130;11.356;2023-02-11T19:28:54;44.55;;;18.67;;
54745;SDS011;40640;48.130;11.356;2023-02-11T19:32:57;51.00;;;23.00;;
54745;SDS011;40640;48.130;11.356;2023-02-11T19:37:00;49.03;;;22.10;;
54745;SDS011;40640;48.130;11.356;2023-02-11T19:41:04;44.03;;;20.50;;
54745;SDS011;40640;48.130;11.356;2023-02-11T19:45:07;35.55;;;17.90;;
54745;SDS011;40640;48.130;11.356;2023-02-11T19:49:11;41.28;;;18.48;;
54745;SDS011;40640;48.130;11.356;2023-02-11T19:53:16;40.20;;;17.73;;
54745;SDS011;40640;48.130;11.356;2023-02-11T19:57:20;40.45;;;18.92;;
54745;SDS011;40640;48.130;11.356;2023-02-11T20:01:24;39.75;;;18.02;;
54745;SDS011;40640;48.130;11.356;2023-02-11T20:05:27;42.63;;;19.42;;
54745;SDS011;40640;48.130;11.356;2023-02-11T20:09:30;39.30;;;18.40;;
54745;SDS011;40640;48.130;11.356;2023-02-11T20:13:35;43.90;;;19.25;;
54745;SDS011;40640;48.130;11.356;2023-02-11T20:17:37;37.33;;;17.73;;
54745;SDS011;40640;48.130;11.356;2023-02-11T20:21:40;39.50;;;17.85;;
54745;SDS011;40640;48.130;11.356;2023-02-11T20:29:51;32.35;;;15.98;;
54745;SDS011;40640;48.130;11.356;2023-02-11T20:33:54;38.05;;;16.60;;
54745;SDS011;40640;48.130;11.356;2023-02-11T20:37:57;36.58;;;16.77;;
54745;SDS011;40640;48.130;11.356;2023-02-11T20:42:01;33.38;;;16.48;;
54745;SDS011;40640;48.130;11.356;2023-02-11T20:46:05;38.72;;;18.58;;
54745;SDS011;40640;48.130;11.356;2023-02-11T20:50:09;42.08;;;19.17;;
54745;SDS011;40640;48.130;11.356;2023-02-11T20:54:13;37.50;;;17.38;;
54745;SDS011;40640;48.130;11.356;2023-02-11T20:58:18;35.80;;;16.77;;
54745;SDS011;40640;48.130;11.356;2023-02-11T21:02:22;31.05;;;16.20;;
54745;SDS011;40640;48.130;11.356;2023-02-11T21:06:26;33.40;;;16.02;;
54745;SDS011;40640;48.130;11.356;2023-02-11T21:10:33;30.27;;;15.80;;
54745;SDS011;40640;48.130;11.356;2023-02-11T21:14:36;34.38;;;15.80;;
54745;SDS011;40640;48.130;11.356;2023-02-11T21:18:41;31.23;;;15.25;;
54745;SDS011;40640;48.130;11.356;2023-02-11T21:22:44;34.25;;;15.82;;
54745;SDS011;40640;48.130;11.356;2023-02-11T21:26:46;29.73;;;15.27;;
54745;SDS011;40640;48.130;11.356;2023-02-11T21:30:49;34.90;;;16.13;;
54745;SDS011;40640;48.130;11.356;2023-02-11T21:34:54;35.15;;;16.17;;
54745;SDS011;40640;48.130;11.356;2023-02-11T21:43:33;32.72;;;16.23;;
54745;SDS011;40640;48.130;11.356;2023-02-11T21:47:36;34.03;;;17.70;;
54745;SDS011;40640;48.130;11.356;2023-02-11T21:51:40;39.13;;;18.27;;
54745;SDS011;40640;48.130;11.356;2023-02-11T21:55:43;34.45;;;17.85;;
54745;SDS011;40640;48.130;11.356;2023-02-11T21:59:46;40.83;;;19.23;;
54745;SDS011;40640;48.130;11.356;2023-02-11T22:03:49;32.40;;;17.85;;
54745;SDS011;40640;48.130;11.356;2023-02-11T22:07:54;33.53;;;16.77;;
54745;SDS011;40640;48.130;11.356;2023-02-11T22:11:56;31.52;;;16.48;;
54745;SDS011;40640;48.130;11.356;2023-02-11T22:16:00;36.28;;;16.27;;
54745;SDS011;40640;48.130;11.356;2023-02-11T22:20:05;33.38;;;15.98;;
54745;SDS011;40640;48.130;11.356;2023-02-11T22:24:10;36.17;;;16.70;;
54745;SDS011;40640;48.130;11.356;2023-02-11T22:28:13;33.97;;;17.40;;
54745;SDS011;40640;48.130;11.356;2023-02-11T22:32:15;31.83;;;16.95;;
54745;SDS011;40640;48.130;11.356;2023-02-11T22:36:19;36.78;;;17.70;;
54745;SDS011;40640;48.130;11.356;2023-02-11T22:40:24;32.90;;;16.75;;
54745;SDS011;40640;48.130;11.356;2023-02-11T22:44:28;32.03;;;16.83;;
54745;SDS011;40640;48.130;11.356;2023-02-11T22:48:30;36.60;;;19.00;;
54745;SDS011;40640;48.130;11.356;2023-02-11T22:52:34;34.10;;;17.08;;
54745;SDS011;40640;48.130;11.356;2023-02-11T22:56:39;34.72;;;18.40;;
54745;SDS011;40640;48.130;11.356;2023-02-11T23:00:42;39.78;;;19.27;;
54745;SDS011;40640;48.130;11.356;2023-02-11T23:04:45;37.05;;;18.33;;
54745;SDS011;40640;48.130;11.356;2023-02-11T23:08:50;34.03;;;17.67;;
54745;SDS011;40640;48.130;11.356;2023-02-11T23:12:55;37.88;;;18.90;;
54745;SDS011;40640;48.130;11.356;2023-02-11T23:16:57;42.35;;;17.83;;
54745;SDS011;40640;48.130;11.356;2023-02-11T23:21:01;37.00;;;18.25;;
54745;SDS011;40640;48.130;11.356;2023-02-11T23:29:11;31.48;;;16.48;;
54745;SDS011;40640;48.130;11.356;2023-02-11T23:33:14;30.77;;;17.40;;
54745;SDS011;40640;48.130;11.356;2023-02-11T23:37:16;36.88;;;16.75;;
54745;SDS011;40640;48.130;11.356;2023-02-11T23:41:19;34.90;;;18.60;;
54745;SDS011;40640;48.130;11.356;2023-02-11T23:45:24;33.17;;;16.88;;
54745;SDS011;40640;48.130;11.356;2023-02-11T23:49:27;35.50;;;17.60;;
54745;SDS011;40640;48.130;11.356;2023-02-11T23:53:30;36.75;;;17.60;;
54745;SDS011;40640;48.130;11.356;2023-02-11T23:57:33;36.95;;;17.92;;
